sensor_id;sensor_type;location;lat;lon;timestamp;P1;durP1;ratioP1;P2;durP2;ratioP2
65533;SDS011;53640;55.838;37.184;2022-12-18T00:01:16;10.70;;;6.38;;
65533;SDS011;53640;55.838;37.184;2022-12-18T00:03:44;10.55;;;6.55;;
65533;SDS011;53640;55.838;37.184;2022-12-18T00:06:11;10.68;;;6.22;;
65533;SDS011;53640;55.838;37.184;2022-12-18T00:08:40;10.88;;;7.45;;
65533;SDS011;53640;55.838;37.184;2022-12-18T00:11:28;10.15;;;6.70;;
65533;SDS011;53640;55.838;37.184;2022-12-18T00:13:56;9.18;;;6.25;;
65533;SDS011;53640;55.838;37.184;2022-12-18T00:16:25;10.18;;;6.78;;
65533;SDS011;53640;55.838;37.184;2022-12-18T00:18:53;9.82;;;6.10;;
65533;SDS011;53640;55.838;37.184;2022-12-18T00:21:24;9.15;;;6.13;;
65533;SDS011;53640;55.838;37.184;2022-12-18T00:23:51;9.20;;;5.93;;
65533;SDS011;53640;55.838;37.184;2022-12-18T00:26:22;9.43;;;6.07;;
65533;SDS011;53640;55.838;37.184;2022-12-18T00:28:53;10.70;;;6.40;;
65533;SDS011;53640;55.838;37.184;2022-12-18T00:31:22;11.00;;;7.15;;
65533;SDS011;53640;55.838;37.184;2022-12-18T00:33:56;10.90;;;6.07;;
65533;SDS011;53640;55.838;37.184;2022-12-18T00:36:24;9.70;;;6.97;;
65533;SDS011;53640;55.838;37.184;2022-12-18T00:38:56;9.32;;;5.90;;
65533;SDS011;53640;55.838;37.184;2022-12-18T00:41:23;9.93;;;6.18;;
65533;SDS011;53640;55.838;37.184;2022-12-18T00:44:10;9.52;;;6.05;;
65533;SDS011;53640;55.838;37.184;2022-12-18T00:46:38;9.30;;;5.60;;
65533;SDS011;53640;55.838;37.184;2022-12-18T00:49:04;10.07;;;5.47;;
65533;SDS011;53640;55.838;37.184;2022-12-18T00:51:31;9.52;;;5.60;;
65533;SDS011;53640;55.838;37.184;2022-12-18T00:53:57;7.40;;;5.30;;
65533;SDS011;53640;55.838;37.184;2022-12-18T00:56:24;8.35;;;5.55;;
65533;SDS011;53640;55.838;37.184;2022-12-18T00:58:52;8.65;;;5.70;;
65533;SDS011;53640;55.838;37.184;2022-12-18T01:01:18;8.25;;;5.65;;
65533;SDS011;53640;55.838;37.184;2022-12-18T01:03:45;8.80;;;5.75;;
65533;SDS011;53640;55.838;37.184;2022-12-18T01:06:12;7.93;;;5.32;;
65533;SDS011;53640;55.838;37.184;2022-12-18T01:08:40;8.63;;;5.72;;
65533;SDS011;53640;55.838;37.184;2022-12-18T01:11:10;8.18;;;5.65;;
65533;SDS011;53640;55.838;37.184;2022-12-18T01:13:41;7.40;;;5.28;;
65533;SDS011;53640;55.838;37.184;2022-12-18T01:16:07;8.95;;;5.80;;
65533;SDS011;53640;55.838;37.184;2022-12-18T01:18:36;7.35;;;5.55;;
65533;SDS011;53640;55.838;37.184;2022-12-18T01:21:06;9.05;;;5.50;;
65533;SDS011;53640;55.838;37.184;2022-12-18T01:23:36;9.23;;;5.85;;
65533;SDS011;53640;55.838;37.184;2022-12-18T01:26:04;9.27;;;5.95;;
65533;SDS011;53640;55.838;37.184;2022-12-18T01:28:34;10.77;;;5.90;;
65533;SDS011;53640;55.838;37.184;2022-12-18T01:33:48;10.30;;;6.78;;
65533;SDS011;53640;55.838;37.184;2022-12-18T01:36:17;10.63;;;6.50;;
65533;SDS011;53640;55.838;37.184;2022-12-18T01:38:48;11.75;;;6.22;;
65533;SDS011;53640;55.838;37.184;2022-12-18T01:41:16;9.68;;;6.10;;
65533;SDS011;53640;55.838;37.184;2022-12-18T01:43:52;11.25;;;6.10;;
65533;SDS011;53640;55.838;37.184;2022-12-18T01:46:19;9.05;;;5.95;;
65533;SDS011;53640;55.838;37.184;2022-12-18T01:48:47;8.05;;;5.80;;
65533;SDS011;53640;55.838;37.184;2022-12-18T01:51:17;9.95;;;6.05;;
65533;SDS011;53640;55.838;37.184;2022-12-18T01:53:44;12.05;;;6.45;;
65533;SDS011;53640;55.838;37.184;2022-12-18T01:56:16;7.25;;;5.30;;
65533;SDS011;53640;55.838;37.184;2022-12-18T02:01:28;7.60;;;5.15;;
65533;SDS011;53640;55.838;37.184;2022-12-18T02:07:02;7.32;;;5.15;;
65533;SDS011;53640;55.838;37.184;2022-12-18T02:10:05;6.55;;;4.95;;
65533;SDS011;53640;55.838;37.184;2022-12-18T02:12:48;7.38;;;5.03;;
65533;SDS011;53640;55.838;37.184;2022-12-18T02:18:12;6.50;;;4.30;;
65533;SDS011;53640;55.838;37.184;2022-12-18T02:28:45;7.85;;;4.75;;
65533;SDS011;53640;55.838;37.184;2022-12-18T02:31:18;8.60;;;4.80;;
65533;SDS011;53640;55.838;37.184;2022-12-18T02:33:53;5.88;;;4.68;;
65533;SDS011;53640;55.838;37.184;2022-12-18T02:36:22;7.63;;;4.50;;
65533;SDS011;53640;55.838;37.184;2022-12-18T02:38:51;9.07;;;5.47;;
65533;SDS011;53640;55.838;37.184;2022-12-18T02:41:20;6.63;;;4.63;;
65533;SDS011;53640;55.838;37.184;2022-12-18T02:43:49;8.00;;;4.60;;
65533;SDS011;53640;55.838;37.184;2022-12-18T02:49:01;6.32;;;4.38;;
65533;SDS011;53640;55.838;37.184;2022-12-18T02:51:45;8.18;;;4.93;;
65533;SDS011;53640;55.838;37.184;2022-12-18T02:57:17;6.97;;;4.65;;
65533;SDS011;53640;55.838;37.184;2022-12-18T03:00:12;7.45;;;4.85;;
65533;SDS011;53640;55.838;37.184;2022-12-18T03:02:49;6.95;;;4.65;;
65533;SDS011;53640;55.838;37.184;2022-12-18T03:08:23;8.52;;;4.95;;
65533;SDS011;53640;55.838;37.184;2022-12-18T03:10:58;7.70;;;5.18;;
65533;SDS011;53640;55.838;37.184;2022-12-18T03:13:44;9.77;;;4.57;;
65533;SDS011;53640;55.838;37.184;2022-12-18T03:16:18;8.32;;;4.50;;
65533;SDS011;53640;55.838;37.184;2022-12-18T03:18:54;5.97;;;3.95;;
65533;SDS011;53640;55.838;37.184;2022-12-18T03:21:28;5.78;;;4.20;;
65533;SDS011;53640;55.838;37.184;2022-12-18T03:24:01;6.45;;;4.55;;
65533;SDS011;53640;55.838;37.184;2022-12-18T03:26:34;6.35;;;4.47;;
65533;SDS011;53640;55.838;37.184;2022-12-18T03:29:05;5.85;;;4.18;;
65533;SDS011;53640;55.838;37.184;2022-12-18T03:31:37;6.38;;;4.30;;
65533;SDS011;53640;55.838;37.184;2022-12-18T03:34:20;8.75;;;4.95;;
65533;SDS011;53640;55.838;37.184;2022-12-18T03:36:53;8.15;;;4.72;;
65533;SDS011;53640;55.838;37.184;2022-12-18T03:39:22;6.40;;;4.07;;
65533;SDS011;53640;55.838;37.184;2022-12-18T03:47:43;5.80;;;4.22;;
65533;SDS011;53640;55.838;37.184;2022-12-18T03:50:18;5.85;;;4.10;;
65533;SDS011;53640;55.838;37.184;2022-12-18T03:55:47;5.82;;;4.07;;
65533;SDS011;53640;55.838;37.184;2022-12-18T03:58:17;6.32;;;4.35;;
65533;SDS011;53640;55.838;37.184;2022-12-18T04:00:56;6.07;;;4.50;;
65533;SDS011;53640;55.838;37.184;2022-12-18T04:03:26;5.95;;;4.32;;
65533;SDS011;53640;55.838;37.184;2022-12-18T04:05:56;5.65;;;4.40;;
65533;SDS011;53640;55.838;37.184;2022-12-18T04:08:26;5.53;;;4.18;;
65533;SDS011;53640;55.838;37.184;2022-12-18T04:11:04;7.35;;;4.70;;
65533;SDS011;53640;55.838;37.184;2022-12-18T04:13:32;8.00;;;4.90;;
65533;SDS011;53640;55.838;37.184;2022-12-18T04:16:06;7.90;;;4.60;;
65533;SDS011;53640;55.838;37.184;2022-12-18T04:18:33;6.65;;;4.57;;
65533;SDS011;53640;55.838;37.184;2022-12-18T04:21:02;7.50;;;4.68;;
65533;SDS011;53640;55.838;37.184;2022-12-18T04:23:28;7.07;;;4.85;;
65533;SDS011;53640;55.838;37.184;2022-12-18T04:25:58;7.57;;;5.00;;
65533;SDS011;53640;55.838;37.184;2022-12-18T04:28:56;7.97;;;4.80;;
65533;SDS011;53640;55.838;37.184;2022-12-18T04:31:22;8.45;;;5.00;;
65533;SDS011;53640;55.838;37.184;2022-12-18T04:33:49;7.30;;;4.97;;
65533;SDS011;53640;55.838;37.184;2022-12-18T04:36:16;7.35;;;4.70;;
65533;SDS011;53640;55.838;37.184;2022-12-18T04:38:44;5.55;;;3.88;;
65533;SDS011;53640;55.838;37.184;2022-12-18T04:41:14;7.32;;;5.05;;
65533;SDS011;53640;55.838;37.184;2022-12-18T04:43:42;6.78;;;4.60;;
65533;SDS011;53640;55.838;37.184;2022-12-18T04:46:08;6.80;;;4.38;;
65533;SDS011;53640;55.838;37.184;2022-12-18T04:48:35;8.32;;;4.82;;
65533;SDS011;53640;55.838;37.184;2022-12-18T04:51:02;6.95;;;4.65;;
65533;SDS011;53640;55.838;37.184;2022-12-18T04:53:30;7.55;;;5.05;;
65533;SDS011;53640;55.838;37.184;2022-12-18T04:56:06;7.03;;;4.75;;
65533;SDS011;53640;55.838;37.184;2022-12-18T04:58:35;7.82;;;4.88;;
65533;SDS011;53640;55.838;37.184;2022-12-18T05:01:02;6.90;;;4.85;;
65533;SDS011;53640;55.838;37.184;2022-12-18T05:03:29;6.85;;;4.85;;
65533;SDS011;53640;55.838;37.184;2022-12-18T05:05:55;7.18;;;4.47;;
65533;SDS011;53640;55.838;37.184;2022-12-18T05:08:22;8.13;;;5.20;;
65533;SDS011;53640;55.838;37.184;2022-12-18T05:10:49;6.05;;;4.00;;
65533;SDS011;53640;55.838;37.184;2022-12-18T05:13:15;7.03;;;4.63;;
65533;SDS011;53640;55.838;37.184;2022-12-18T05:15:42;8.48;;;5.63;;
65533;SDS011;53640;55.838;37.184;2022-12-18T05:18:08;6.80;;;4.80;;
65533;SDS011;53640;55.838;37.184;2022-12-18T05:20:34;9.23;;;5.05;;
65533;SDS011;53640;55.838;37.184;2022-12-18T05:23:01;7.50;;;4.70;;
65533;SDS011;53640;55.838;37.184;2022-12-18T05:25:27;7.60;;;4.72;;
65533;SDS011;53640;55.838;37.184;2022-12-18T05:27:54;8.48;;;4.80;;
65533;SDS011;53640;55.838;37.184;2022-12-18T05:30:20;6.82;;;4.60;;
65533;SDS011;53640;55.838;37.184;2022-12-18T05:32:46;5.47;;;3.38;;
65533;SDS011;53640;55.838;37.184;2022-12-18T05:35:13;8.48;;;5.03;;
65533;SDS011;53640;55.838;37.184;2022-12-18T05:37:39;7.57;;;4.20;;
65533;SDS011;53640;55.838;37.184;2022-12-18T05:40:05;6.93;;;4.82;;
65533;SDS011;53640;55.838;37.184;2022-12-18T05:42:32;8.13;;;5.32;;
65533;SDS011;53640;55.838;37.184;2022-12-18T05:44:59;8.32;;;5.00;;
65533;SDS011;53640;55.838;37.184;2022-12-18T05:47:26;6.80;;;4.22;;
65533;SDS011;53640;55.838;37.184;2022-12-18T05:49:53;7.03;;;4.22;;
65533;SDS011;53640;55.838;37.184;2022-12-18T05:52:19;11.10;;;5.30;;
65533;SDS011;53640;55.838;37.184;2022-12-18T05:54:46;7.30;;;4.80;;
65533;SDS011;53640;55.838;37.184;2022-12-18T05:57:12;5.95;;;4.30;;
65533;SDS011;53640;55.838;37.184;2022-12-18T05:59:38;5.25;;;4.40;;
65533;SDS011;53640;55.838;37.184;2022-12-18T06:02:05;7.22;;;4.78;;
65533;SDS011;53640;55.838;37.184;2022-12-18T06:04:31;7.07;;;5.20;;
65533;SDS011;53640;55.838;37.184;2022-12-18T06:06:58;7.75;;;4.60;;
65533;SDS011;53640;55.838;37.184;2022-12-18T06:09:24;7.07;;;4.75;;
65533;SDS011;53640;55.838;37.184;2022-12-18T06:11:51;9.65;;;5.38;;
65533;SDS011;53640;55.838;37.184;2022-12-18T06:14:18;7.82;;;4.80;;
65533;SDS011;53640;55.838;37.184;2022-12-18T06:16:44;8.30;;;4.90;;
65533;SDS011;53640;55.838;37.184;2022-12-18T06:19:13;8.80;;;4.80;;
65533;SDS011;53640;55.838;37.184;2022-12-18T06:21:41;7.35;;;4.65;;
65533;SDS011;53640;55.838;37.184;2022-12-18T06:24:08;6.47;;;4.53;;
65533;SDS011;53640;55.838;37.184;2022-12-18T06:26:36;7.32;;;5.25;;
65533;SDS011;53640;55.838;37.184;2022-12-18T06:29:04;6.82;;;4.85;;
65533;SDS011;53640;55.838;37.184;2022-12-18T06:31:31;7.72;;;4.80;;
65533;SDS011;53640;55.838;37.184;2022-12-18T06:33:59;7.63;;;4.80;;
65533;SDS011;53640;55.838;37.184;2022-12-18T06:36:28;8.15;;;4.97;;
65533;SDS011;53640;55.838;37.184;2022-12-18T06:38:55;7.68;;;4.93;;
65533;SDS011;53640;55.838;37.184;2022-12-18T06:41:22;5.70;;;4.30;;
65533;SDS011;53640;55.838;37.184;2022-12-18T06:43:49;7.88;;;5.05;;
65533;SDS011;53640;55.838;37.184;2022-12-18T06:46:15;7.72;;;4.90;;
65533;SDS011;53640;55.838;37.184;2022-12-18T06:48:42;5.72;;;4.35;;
65533;SDS011;53640;55.838;37.184;2022-12-18T06:51:08;7.60;;;4.63;;
65533;SDS011;53640;55.838;37.184;2022-12-18T06:53:34;7.65;;;5.13;;
65533;SDS011;53640;55.838;37.184;2022-12-18T06:56:01;6.40;;;4.75;;
65533;SDS011;53640;55.838;37.184;2022-12-18T06:58:29;8.88;;;5.60;;
65533;SDS011;53640;55.838;37.184;2022-12-18T07:01:03;7.03;;;4.82;;
65533;SDS011;53640;55.838;37.184;2022-12-18T07:03:32;7.07;;;4.65;;
65533;SDS011;53640;55.838;37.184;2022-12-18T07:05:58;8.50;;;4.68;;
65533;SDS011;53640;55.838;37.184;2022-12-18T07:08:25;6.13;;;4.18;;
65533;SDS011;53640;55.838;37.184;2022-12-18T07:10:51;7.38;;;4.95;;
65533;SDS011;53640;55.838;37.184;2022-12-18T07:13:19;7.93;;;4.72;;
65533;SDS011;53640;55.838;37.184;2022-12-18T07:15:46;7.72;;;4.82;;
65533;SDS011;53640;55.838;37.184;2022-12-18T07:18:12;6.75;;;4.28;;
65533;SDS011;53640;55.838;37.184;2022-12-18T07:20:38;7.80;;;4.93;;
65533;SDS011;53640;55.838;37.184;2022-12-18T07:23:05;6.22;;;4.35;;
65533;SDS011;53640;55.838;37.184;2022-12-18T07:25:34;5.38;;;4.00;;
65533;SDS011;53640;55.838;37.184;2022-12-18T07:28:01;7.97;;;4.97;;
65533;SDS011;53640;55.838;37.184;2022-12-18T07:30:28;7.30;;;5.13;;
65533;SDS011;53640;55.838;37.184;2022-12-18T07:32:55;6.25;;;4.30;;
65533;SDS011;53640;55.838;37.184;2022-12-18T07:35:21;7.20;;;4.53;;
65533;SDS011;53640;55.838;37.184;2022-12-18T07:37:47;5.03;;;3.40;;
65533;SDS011;53640;55.838;37.184;2022-12-18T07:40:14;6.38;;;4.53;;
65533;SDS011;53640;55.838;37.184;2022-12-18T07:42:40;7.25;;;4.22;;
65533;SDS011;53640;55.838;37.184;2022-12-18T07:45:07;6.65;;;4.03;;
65533;SDS011;53640;55.838;37.184;2022-12-18T07:47:35;6.03;;;3.83;;
65533;SDS011;53640;55.838;37.184;2022-12-18T07:50:05;8.38;;;4.70;;
65533;SDS011;53640;55.838;37.184;2022-12-18T07:52:32;8.82;;;4.25;;
65533;SDS011;53640;55.838;37.184;2022-12-18T07:54:58;6.97;;;4.53;;
65533;SDS011;53640;55.838;37.184;2022-12-18T07:57:24;7.22;;;4.68;;
65533;SDS011;53640;55.838;37.184;2022-12-18T07:59:52;7.57;;;4.22;;
65533;SDS011;53640;55.838;37.184;2022-12-18T08:02:18;9.23;;;4.80;;
65533;SDS011;53640;55.838;37.184;2022-12-18T08:04:44;6.28;;;4.60;;
65533;SDS011;53640;55.838;37.184;2022-12-18T08:07:12;6.75;;;4.45;;
65533;SDS011;53640;55.838;37.184;2022-12-18T08:09:38;4.53;;;3.55;;
65533;SDS011;53640;55.838;37.184;2022-12-18T08:12:05;4.18;;;3.40;;
65533;SDS011;53640;55.838;37.184;2022-12-18T08:14:31;6.45;;;4.25;;
65533;SDS011;53640;55.838;37.184;2022-12-18T08:16:58;6.57;;;4.32;;
65533;SDS011;53640;55.838;37.184;2022-12-18T08:19:24;4.97;;;3.88;;
65533;SDS011;53640;55.838;37.184;2022-12-18T08:21:50;7.00;;;3.92;;
65533;SDS011;53640;55.838;37.184;2022-12-18T08:24:17;6.03;;;3.85;;
65533;SDS011;53640;55.838;37.184;2022-12-18T08:26:43;8.35;;;4.57;;
65533;SDS011;53640;55.838;37.184;2022-12-18T08:29:10;6.53;;;4.75;;
65533;SDS011;53640;55.838;37.184;2022-12-18T08:31:36;6.97;;;4.60;;
65533;SDS011;53640;55.838;37.184;2022-12-18T08:34:03;5.97;;;4.38;;
65533;SDS011;53640;55.838;37.184;2022-12-18T08:36:29;7.55;;;4.47;;
65533;SDS011;53640;55.838;37.184;2022-12-18T08:38:56;8.48;;;4.20;;
65533;SDS011;53640;55.838;37.184;2022-12-18T08:41:22;8.05;;;3.97;;
65533;SDS011;53640;55.838;37.184;2022-12-18T08:43:49;4.43;;;3.67;;
65533;SDS011;53640;55.838;37.184;2022-12-18T08:46:36;5.70;;;4.18;;
65533;SDS011;53640;55.838;37.184;2022-12-18T08:49:04;6.20;;;4.35;;
65533;SDS011;53640;55.838;37.184;2022-12-18T08:51:31;8.13;;;4.55;;
65533;SDS011;53640;55.838;37.184;2022-12-18T08:53:58;6.05;;;4.32;;
65533;SDS011;53640;55.838;37.184;2022-12-18T08:56:24;7.20;;;4.07;;
65533;SDS011;53640;55.838;37.184;2022-12-18T08:58:51;7.05;;;4.25;;
65533;SDS011;53640;55.838;37.184;2022-12-18T09:01:19;6.30;;;4.50;;
65533;SDS011;53640;55.838;37.184;2022-12-18T09:03:46;5.40;;;3.67;;
65533;SDS011;53640;55.838;37.184;2022-12-18T09:06:19;6.47;;;3.70;;
65533;SDS011;53640;55.838;37.184;2022-12-18T09:08:46;5.60;;;3.65;;
65533;SDS011;53640;55.838;37.184;2022-12-18T09:11:14;5.45;;;3.63;;
65533;SDS011;53640;55.838;37.184;2022-12-18T09:13:44;5.57;;;3.97;;
65533;SDS011;53640;55.838;37.184;2022-12-18T09:16:11;6.93;;;3.75;;
65533;SDS011;53640;55.838;37.184;2022-12-18T09:18:37;5.78;;;3.88;;
65533;SDS011;53640;55.838;37.184;2022-12-18T09:21:07;6.03;;;3.85;;
65533;SDS011;53640;55.838;37.184;2022-12-18T09:23:35;6.43;;;3.33;;
65533;SDS011;53640;55.838;37.184;2022-12-18T09:26:02;6.30;;;3.83;;
65533;SDS011;53640;55.838;37.184;2022-12-18T09:28:28;5.22;;;3.63;;
65533;SDS011;53640;55.838;37.184;2022-12-18T09:30:56;4.85;;;3.42;;
65533;SDS011;53640;55.838;37.184;2022-12-18T09:33:22;6.72;;;4.00;;
65533;SDS011;53640;55.838;37.184;2022-12-18T09:35:49;5.38;;;3.47;;
65533;SDS011;53640;55.838;37.184;2022-12-18T09:38:16;6.68;;;3.83;;
65533;SDS011;53640;55.838;37.184;2022-12-18T09:46:19;6.90;;;4.20;;
65533;SDS011;53640;55.838;37.184;2022-12-18T09:48:53;5.68;;;3.38;;
65533;SDS011;53640;55.838;37.184;2022-12-18T09:51:23;4.57;;;2.92;;
65533;SDS011;53640;55.838;37.184;2022-12-18T09:53:57;4.55;;;3.30;;
65533;SDS011;53640;55.838;37.184;2022-12-18T09:56:31;5.30;;;3.65;;
65533;SDS011;53640;55.838;37.184;2022-12-18T09:59:03;7.03;;;3.83;;
65533;SDS011;53640;55.838;37.184;2022-12-18T10:01:31;4.53;;;3.38;;
65533;SDS011;53640;55.838;37.184;2022-12-18T10:03:58;5.25;;;3.30;;
65533;SDS011;53640;55.838;37.184;2022-12-18T10:09:27;5.88;;;3.97;;
65533;SDS011;53640;55.838;37.184;2022-12-18T10:14:57;7.65;;;3.10;;
65533;SDS011;53640;55.838;37.184;2022-12-18T10:17:51;5.55;;;3.08;;
65533;SDS011;53640;55.838;37.184;2022-12-18T10:20:31;5.93;;;3.08;;
65533;SDS011;53640;55.838;37.184;2022-12-18T10:23:16;4.78;;;3.20;;
65533;SDS011;53640;55.838;37.184;2022-12-18T10:26:07;4.43;;;3.05;;
65533;SDS011;53640;55.838;37.184;2022-12-18T10:28:36;10.02;;;4.78;;
65533;SDS011;53640;55.838;37.184;2022-12-18T10:31:05;5.60;;;3.42;;
65533;SDS011;53640;55.838;37.184;2022-12-18T10:33:33;4.35;;;3.40;;
65533;SDS011;53640;55.838;37.184;2022-12-18T10:36:00;5.25;;;3.45;;
65533;SDS011;53640;55.838;37.184;2022-12-18T10:38:30;4.53;;;3.10;;
65533;SDS011;53640;55.838;37.184;2022-12-18T10:43:28;4.97;;;3.63;;
65533;SDS011;53640;55.838;37.184;2022-12-18T10:51:35;3.92;;;2.55;;
65533;SDS011;53640;55.838;37.184;2022-12-18T10:54:05;4.95;;;3.08;;
65533;SDS011;53640;55.838;37.184;2022-12-18T10:56:40;3.03;;;2.30;;
65533;SDS011;53640;55.838;37.184;2022-12-18T10:59:08;4.10;;;2.80;;
65533;SDS011;53640;55.838;37.184;2022-12-18T11:07:07;2.42;;;2.13;;
65533;SDS011;53640;55.838;37.184;2022-12-18T11:09:37;2.72;;;2.47;;
65533;SDS011;53640;55.838;37.184;2022-12-18T11:12:15;3.97;;;3.05;;
65533;SDS011;53640;55.838;37.184;2022-12-18T11:14:51;6.22;;;2.47;;
65533;SDS011;53640;55.838;37.184;2022-12-18T11:17:25;4.13;;;2.85;;
65533;SDS011;53640;55.838;37.184;2022-12-18T11:20:00;4.30;;;3.00;;
65533;SDS011;53640;55.838;37.184;2022-12-18T11:22:33;3.50;;;2.67;;
65533;SDS011;53640;55.838;37.184;2022-12-18T11:25:04;3.95;;;2.40;;
65533;SDS011;53640;55.838;37.184;2022-12-18T11:27:32;2.80;;;2.25;;
65533;SDS011;53640;55.838;37.184;2022-12-18T11:32:44;2.90;;;2.55;;
65533;SDS011;53640;55.838;37.184;2022-12-18T11:38:02;4.65;;;2.88;;
65533;SDS011;53640;55.838;37.184;2022-12-18T11:40:40;3.38;;;2.65;;
65533;SDS011;53640;55.838;37.184;2022-12-18T11:43:11;4.03;;;2.83;;
65533;SDS011;53640;55.838;37.184;2022-12-18T11:45:48;2.38;;;1.92;;
65533;SDS011;53640;55.838;37.184;2022-12-18T11:48:21;6.28;;;3.22;;
65533;SDS011;53640;55.838;37.184;2022-12-18T11:50:52;4.68;;;2.97;;
65533;SDS011;53640;55.838;37.184;2022-12-18T11:53:21;3.83;;;3.03;;
65533;SDS011;53640;55.838;37.184;2022-12-18T11:58:50;5.13;;;2.85;;
65533;SDS011;53640;55.838;37.184;2022-12-18T12:01:42;5.93;;;3.17;;
65533;SDS011;53640;55.838;37.184;2022-12-18T12:07:12;5.40;;;3.25;;
65533;SDS011;53640;55.838;37.184;2022-12-18T12:18:06;4.18;;;2.38;;
65533;SDS011;53640;55.838;37.184;2022-12-18T12:20:51;7.68;;;3.50;;
65533;SDS011;53640;55.838;37.184;2022-12-18T12:26:22;11.45;;;4.70;;
65533;SDS011;53640;55.838;37.184;2022-12-18T12:29:18;8.55;;;3.88;;
65533;SDS011;53640;55.838;37.184;2022-12-18T12:35:03;10.48;;;4.20;;
65533;SDS011;53640;55.838;37.184;2022-12-18T12:40:12;8.80;;;3.80;;
65533;SDS011;53640;55.838;37.184;2022-12-18T12:45:36;12.65;;;5.80;;
65533;SDS011;53640;55.838;37.184;2022-12-18T12:48:13;16.25;;;7.45;;
65533;SDS011;53640;55.838;37.184;2022-12-18T12:50:44;14.80;;;6.55;;
65533;SDS011;53640;55.838;37.184;2022-12-18T12:53:21;14.73;;;6.00;;
65533;SDS011;53640;55.838;37.184;2022-12-18T12:55:51;15.73;;;7.13;;
65533;SDS011;53640;55.838;37.184;2022-12-18T13:01:02;14.25;;;6.47;;
65533;SDS011;53640;55.838;37.184;2022-12-18T13:06:25;14.30;;;6.28;;
65533;SDS011;53640;55.838;37.184;2022-12-18T13:09:07;13.90;;;6.50;;
65533;SDS011;53640;55.838;37.184;2022-12-18T13:14:24;14.65;;;6.50;;
65533;SDS011;53640;55.838;37.184;2022-12-18T13:17:15;14.65;;;6.30;;
65533;SDS011;53640;55.838;37.184;2022-12-18T13:22:32;12.52;;;5.63;;
65533;SDS011;53640;55.838;37.184;2022-12-18T13:25:02;10.95;;;4.75;;
65533;SDS011;53640;55.838;37.184;2022-12-18T13:41:02;10.18;;;5.05;;
65533;SDS011;53640;55.838;37.184;2022-12-18T13:43:48;10.63;;;4.47;;
65533;SDS011;53640;55.838;37.184;2022-12-18T13:46:23;7.47;;;4.20;;
65533;SDS011;53640;55.838;37.184;2022-12-18T13:51:31;5.60;;;3.85;;
65533;SDS011;53640;55.838;37.184;2022-12-18T13:54:06;6.07;;;3.60;;
65533;SDS011;53640;55.838;37.184;2022-12-18T13:56:50;5.88;;;3.35;;
65533;SDS011;53640;55.838;37.184;2022-12-18T13:59:18;6.45;;;3.85;;
65533;SDS011;53640;55.838;37.184;2022-12-18T14:09:58;5.72;;;3.58;;
65533;SDS011;53640;55.838;37.184;2022-12-18T14:12:28;5.55;;;3.55;;
65533;SDS011;53640;55.838;37.184;2022-12-18T14:20:26;6.15;;;3.67;;
65533;SDS011;53640;55.838;37.184;2022-12-18T14:22:55;6.40;;;3.97;;
65533;SDS011;53640;55.838;37.184;2022-12-18T14:25:23;4.72;;;2.92;;
65533;SDS011;53640;55.838;37.184;2022-12-18T14:27:53;7.88;;;4.30;;
65533;SDS011;53640;55.838;37.184;2022-12-18T14:30:41;6.72;;;3.95;;
65533;SDS011;53640;55.838;37.184;2022-12-18T14:35:40;4.70;;;2.97;;
65533;SDS011;53640;55.838;37.184;2022-12-18T14:40:57;6.68;;;3.85;;
65533;SDS011;53640;55.838;37.184;2022-12-18T14:43:32;5.28;;;3.65;;
65533;SDS011;53640;55.838;37.184;2022-12-18T14:46:00;4.50;;;3.35;;
65533;SDS011;53640;55.838;37.184;2022-12-18T14:51:21;3.90;;;2.92;;
65533;SDS011;53640;55.838;37.184;2022-12-18T14:53:56;5.75;;;3.70;;
65533;SDS011;53640;55.838;37.184;2022-12-18T14:56:25;5.50;;;3.72;;
65533;SDS011;53640;55.838;37.184;2022-12-18T14:58:58;6.28;;;3.70;;
65533;SDS011;53640;55.838;37.184;2022-12-18T15:04:26;6.10;;;3.75;;
65533;SDS011;53640;55.838;37.184;2022-12-18T15:09:42;5.63;;;3.58;;
65533;SDS011;53640;55.838;37.184;2022-12-18T15:12:48;5.70;;;3.92;;
65533;SDS011;53640;55.838;37.184;2022-12-18T15:20:26;7.43;;;4.68;;
65533;SDS011;53640;55.838;37.184;2022-12-18T15:22:52;6.25;;;4.22;;
65533;SDS011;53640;55.838;37.184;2022-12-18T15:25:31;6.43;;;4.38;;
65533;SDS011;53640;55.838;37.184;2022-12-18T15:28:02;8.57;;;4.28;;
65533;SDS011;53640;55.838;37.184;2022-12-18T15:30:30;6.88;;;4.35;;
65533;SDS011;53640;55.838;37.184;2022-12-18T15:35:55;6.35;;;4.10;;
65533;SDS011;53640;55.838;37.184;2022-12-18T15:38:23;7.10;;;4.30;;
65533;SDS011;53640;55.838;37.184;2022-12-18T15:40:50;6.40;;;4.10;;
65533;SDS011;53640;55.838;37.184;2022-12-18T15:43:22;7.15;;;3.90;;
65533;SDS011;53640;55.838;37.184;2022-12-18T15:46:06;6.05;;;3.83;;
65533;SDS011;53640;55.838;37.184;2022-12-18T15:48:55;8.00;;;4.93;;
65533;SDS011;53640;55.838;37.184;2022-12-18T15:54:03;5.65;;;4.10;;
65533;SDS011;53640;55.838;37.184;2022-12-18T15:56:32;8.35;;;5.20;;
65533;SDS011;53640;55.838;37.184;2022-12-18T15:59:18;7.10;;;4.13;;
65533;SDS011;53640;55.838;37.184;2022-12-18T16:01:46;8.95;;;4.65;;
65533;SDS011;53640;55.838;37.184;2022-12-18T16:04:15;9.35;;;4.40;;
65533;SDS011;53640;55.838;37.184;2022-12-18T16:06:43;7.75;;;4.43;;
65533;SDS011;53640;55.838;37.184;2022-12-18T16:09:09;7.38;;;4.20;;
65533;SDS011;53640;55.838;37.184;2022-12-18T16:11:36;6.53;;;4.35;;
65533;SDS011;53640;55.838;37.184;2022-12-18T16:14:22;9.43;;;4.78;;
65533;SDS011;53640;55.838;37.184;2022-12-18T16:16:53;7.55;;;5.00;;
65533;SDS011;53640;55.838;37.184;2022-12-18T16:19:24;9.00;;;5.13;;
65533;SDS011;53640;55.838;37.184;2022-12-18T16:21:52;11.00;;;5.78;;
65533;SDS011;53640;55.838;37.184;2022-12-18T16:24:21;9.23;;;5.50;;
65533;SDS011;53640;55.838;37.184;2022-12-18T16:26:50;9.70;;;4.90;;
65533;SDS011;53640;55.838;37.184;2022-12-18T16:29:17;9.48;;;4.68;;
65533;SDS011;53640;55.838;37.184;2022-12-18T16:31:45;8.13;;;4.65;;
65533;SDS011;53640;55.838;37.184;2022-12-18T16:36:54;8.40;;;4.22;;
65533;SDS011;53640;55.838;37.184;2022-12-18T16:39:25;6.63;;;3.95;;
65533;SDS011;53640;55.838;37.184;2022-12-18T16:41:52;7.68;;;4.97;;
65533;SDS011;53640;55.838;37.184;2022-12-18T16:44:19;8.80;;;5.03;;
65533;SDS011;53640;55.838;37.184;2022-12-18T16:46:46;10.50;;;5.70;;
65533;SDS011;53640;55.838;37.184;2022-12-18T16:49:13;7.40;;;5.25;;
65533;SDS011;53640;55.838;37.184;2022-12-18T16:51:41;11.20;;;5.13;;
65533;SDS011;53640;55.838;37.184;2022-12-18T16:54:08;12.07;;;5.00;;
65533;SDS011;53640;55.838;37.184;2022-12-18T16:56:34;9.23;;;4.90;;
65533;SDS011;53640;55.838;37.184;2022-12-18T16:59:01;7.40;;;4.40;;
65533;SDS011;53640;55.838;37.184;2022-12-18T17:01:29;8.77;;;5.03;;
65533;SDS011;53640;55.838;37.184;2022-12-18T17:04:01;11.10;;;5.40;;
65533;SDS011;53640;55.838;37.184;2022-12-18T17:06:30;9.30;;;4.90;;
65533;SDS011;53640;55.838;37.184;2022-12-18T17:08:59;10.45;;;5.82;;
65533;SDS011;53640;55.838;37.184;2022-12-18T17:11:27;9.90;;;5.05;;
65533;SDS011;53640;55.838;37.184;2022-12-18T17:13:55;8.48;;;4.75;;
65533;SDS011;53640;55.838;37.184;2022-12-18T17:16:22;6.22;;;4.45;;
65533;SDS011;53640;55.838;37.184;2022-12-18T17:18:49;6.07;;;4.20;;
65533;SDS011;53640;55.838;37.184;2022-12-18T17:21:17;11.30;;;5.45;;
65533;SDS011;53640;55.838;37.184;2022-12-18T17:23:44;8.52;;;4.45;;
65533;SDS011;53640;55.838;37.184;2022-12-18T17:26:11;11.15;;;5.15;;
65533;SDS011;53640;55.838;37.184;2022-12-18T17:28:39;9.90;;;5.60;;
65533;SDS011;53640;55.838;37.184;2022-12-18T17:31:10;12.27;;;5.25;;
65533;SDS011;53640;55.838;37.184;2022-12-18T17:33:37;8.77;;;5.20;;